Time;durP1;ratioP1;P1;durP2;ratioP2;P2;SDS_P1;SDS_P2;PMS_P1;PMS_P2;Temp;Humidity;BMP_temperature;BMP_pressure;BME280_temperature;BME280_humidity;BME280_pressure;Samples;Min_cycle;Max_cycle;Signal;HPM_P1;HPM_P2
2022/10/09 00:01:33;;;;;;;;;;;11.30;99.90;;;;;;4986184;28;19934;-76
2022/10/09 00:04:00;;;;;;;;;;;11.30;99.90;;;;;;4979049;28;20371;-76
2022/10/09 00:06:28;;;;;;;;;;;11.30;99.90;;;;;;4985364;28;19926;-76
2022/10/09 00:08:55;;;;;;;;;;;11.30;99.90;;;;;;4979594;28;20455;-76
2022/10/09 00:11:23;;;;;;;;;;;11.30;99.90;;;;;;4987228;28;19961;-76
2022/10/09 00:13:50;;;;;;;;;;;11.30;99.90;;;;;;4985339;28;19930;-75
2022/10/09 00:16:17;;;;;;;;;;;11.30;99.90;;;;;;4985954;28;20135;-76
2022/10/09 00:18:46;;;;;;;;;;;11.30;99.90;;;;;;4982717;28;19961;-75
2022/10/09 00:21:20;;;;;;;;;;;11.20;99.90;;;;;;4986232;28;19930;-76
2022/10/09 00:23:48;;;;;;;;;;;11.20;99.90;;;;;;4979256;28;19958;-76
2022/10/09 00:26:14;;;;;;;;;;;11.20;99.90;;;;;;4979781;28;19988;-76
2022/10/09 00:28:41;;;;;;;;;;;11.20;99.90;;;;;;4981032;28;19926;-76
2022/10/09 00:31:08;;;;;;;;;;;11.20;99.90;;;;;;4984465;28;19934;-76
2022/10/09 00:33:35;;;;;;;;;;;11.30;99.90;;;;;;4978488;28;20683;-75
2022/10/09 00:36:04;;;;;;;;;;;11.20;99.90;;;;;;4988094;28;19995;-75
2022/10/09 00:38:31;;;;;;;;;;;11.20;99.90;;;;;;4988327;28;20365;-76
2022/10/09 00:40:58;;;;;;;;;;;11.30;99.90;;;;;;4985566;28;20017;-75
2022/10/09 00:43:42;;;;;;;;;;;11.20;99.90;;;;;;4982810;28;19933;-75
2022/10/09 00:46:16;;;;;;;;;;;11.20;99.90;;;;;;4979276;28;19926;-75
2022/10/09 00:48:42;;;;;;;;;;;11.20;99.90;;;;;;4983657;28;20035;-75
2022/10/09 00:51:11;;;;;;;;;;;11.20;99.90;;;;;;4983215;28;19933;-75
2022/10/09 00:53:38;;;;;;;;;;;11.30;99.90;;;;;;4979326;28;19997;-75
2022/10/09 00:56:04;;;;;;;;;;;11.30;99.90;;;;;;4975848;28;19981;-75
2022/10/09 00:58:31;;;;;;;;;;;11.20;99.90;;;;;;4974146;28;20024;-75
2022/10/09 01:00:58;;;;;;;;;;;11.20;99.90;;;;;;4984161;28;19930;-75
2022/10/09 01:03:25;;;;;;;;;;;11.20;99.90;;;;;;4983451;28;19926;-75
2022/10/09 01:05:54;;;;;;;;;;;11.20;99.90;;;;;;4987936;28;19957;-75
2022/10/09 01:08:25;;;;;;;;;;;11.20;99.90;;;;;;4986969;28;19949;-75
2022/10/09 01:10:57;;;;;;;;;;;11.20;99.90;;;;;;4987357;28;20450;-75
2022/10/09 01:13:33;;;;;;;;;;;11.20;99.90;;;;;;4981070;28;19930;-75
2022/10/09 01:16:01;;;;;;;;;;;11.20;99.90;;;;;;4984126;28;19925;-75
2022/10/09 01:18:30;;;;;;;;;;;11.10;99.90;;;;;;4982857;28;20005;-75
2022/10/09 01:21:00;;;;;;;;;;;11.10;99.90;;;;;;4987844;28;20311;-75
2022/10/09 01:23:48;;;;;;;;;;;11.20;99.90;;;;;;4987044;28;20307;-76
2022/10/09 01:26:25;;;;;;;;;;;11.20;99.90;;;;;;4978528;28;19941;-75
2022/10/09 01:28:54;;;;;;;;;;;11.10;99.90;;;;;;4987729;28;20032;-75
2022/10/09 01:31:22;;;;;;;;;;;11.20;99.90;;;;;;4982514;28;19930;-75
2022/10/09 01:33:49;;;;;;;;;;;11.10;99.90;;;;;;4981814;28;19961;-75
2022/10/09 01:36:17;;;;;;;;;;;11.10;99.90;;;;;;4980170;28;19998;-75
2022/10/09 01:38:44;;;;;;;;;;;11.10;99.90;;;;;;4989126;28;20359;-75
2022/10/09 01:41:11;;;;;;;;;;;11.10;99.90;;;;;;4978778;28;20458;-76
2022/10/09 01:43:38;;;;;;;;;;;11.10;99.90;;;;;;4980923;28;19965;-76
2022/10/09 01:46:20;;;;;;;;;;;11.10;99.90;;;;;;4985219;28;19932;-75
2022/10/09 01:48:51;;;;;;;;;;;11.10;99.90;;;;;;4982471;28;19980;-75
2022/10/09 01:51:19;;;;;;;;;;;11.10;99.90;;;;;;4979227;28;19938;-76
2022/10/09 01:53:47;;;;;;;;;;;11.10;99.90;;;;;;4976057;28;19926;-75
2022/10/09 01:56:18;;;;;;;;;;;11.10;99.90;;;;;;4983737;28;20025;-75
2022/10/09 01:58:47;;;;;;;;;;;11.10;99.90;;;;;;4985861;28;19933;-75
2022/10/09 02:01:15;;;;;;;;;;;11.00;99.90;;;;;;4979243;28;19996;-75
2022/10/09 02:03:45;;;;;;;;;;;11.00;99.90;;;;;;4983931;28;19933;-75
2022/10/09 02:06:12;;;;;;;;;;;11.00;99.90;;;;;;4978849;28;20059;-75
2022/10/09 02:08:40;;;;;;;;;;;11.00;99.90;;;;;;4977804;28;20302;-75
2022/10/09 02:11:09;;;;;;;;;;;11.00;99.90;;;;;;4974139;28;20017;-75
2022/10/09 02:13:36;;;;;;;;;;;11.00;99.90;;;;;;4983844;28;19926;-75
2022/10/09 02:16:07;;;;;;;;;;;11.00;99.90;;;;;;4989765;28;19930;-75
2022/10/09 02:18:42;;;;;;;;;;;11.00;99.90;;;;;;4984082;28;20289;-75
2022/10/09 02:21:12;;;;;;;;;;;11.00;99.90;;;;;;4979397;28;20347;-75
2022/10/09 02:23:39;;;;;;;;;;;11.00;99.90;;;;;;4984646;28;20308;-77
2022/10/09 02:26:07;;;;;;;;;;;10.90;99.90;;;;;;4982412;28;19930;-75
2022/10/09 02:28:34;;;;;;;;;;;10.90;99.90;;;;;;4986570;28;19926;-75
2022/10/09 02:31:03;;;;;;;;;;;10.90;99.90;;;;;;4984193;28;19980;-75
2022/10/09 02:33:31;;;;;;;;;;;10.90;99.90;;;;;;4987068;28;20060;-75
2022/10/09 02:35:58;;;;;;;;;;;10.90;99.90;;;;;;4983079;28;19933;-75
2022/10/09 02:38:26;;;;;;;;;;;10.90;99.90;;;;;;4985491;28;19996;-75
2022/10/09 02:40:56;;;;;;;;;;;10.80;99.90;;;;;;4979123;28;19925;-75
2022/10/09 02:43:23;;;;;;;;;;;10.80;99.90;;;;;;4981418;28;20028;-75
2022/10/09 02:45:50;;;;;;;;;;;10.80;99.90;;;;;;4985024;28;19925;-75
2022/10/09 02:48:17;;;;;;;;;;;10.80;99.90;;;;;;4975352;28;19925;-76
2022/10/09 02:50:43;;;;;;;;;;;10.80;99.90;;;;;;4983099;28;19992;-75
2022/10/09 02:53:10;;;;;;;;;;;10.80;99.90;;;;;;4979075;28;19926;-75
2022/10/09 02:55:39;;;;;;;;;;;10.80;99.90;;;;;;4985027;28;20489;-75
2022/10/09 02:58:06;;;;;;;;;;;10.80;99.90;;;;;;4988098;28;19949;-75
2022/10/09 03:00:33;;;;;;;;;;;10.80;99.90;;;;;;4987599;28;20459;-75
2022/10/09 03:03:00;;;;;;;;;;;10.80;99.90;;;;;;4979319;28;19985;-75
2022/10/09 03:05:27;;;;;;;;;;;10.80;99.90;;;;;;4985845;28;20016;-75
2022/10/09 03:07:53;;;;;;;;;;;10.70;99.90;;;;;;4983068;28;19973;-75
2022/10/09 03:10:20;;;;;;;;;;;10.70;99.90;;;;;;4984763;28;19933;-75
2022/10/09 03:12:49;;;;;;;;;;;10.70;99.90;;;;;;4987229;28;20130;-76
2022/10/09 03:15:16;;;;;;;;;;;10.70;99.90;;;;;;4981382;28;20578;-76
2022/10/09 03:17:42;;;;;;;;;;;10.70;99.90;;;;;;4977647;28;19930;-75
2022/10/09 03:20:09;;;;;;;;;;;10.80;99.90;;;;;;4984183;28;20012;-75
2022/10/09 03:22:36;;;;;;;;;;;10.70;99.90;;;;;;4982148;28;20005;-75
2022/10/09 03:25:03;;;;;;;;;;;10.60;99.90;;;;;;4981197;28;19954;-75
2022/10/09 03:27:30;;;;;;;;;;;10.70;99.90;;;;;;4981146;28;20178;-75
2022/10/09 03:29:58;;;;;;;;;;;10.60;99.90;;;;;;4978565;28;19926;-75
2022/10/09 03:32:25;;;;;;;;;;;10.60;99.90;;;;;;4976445;28;20392;-77
2022/10/09 03:34:52;;;;;;;;;;;10.60;99.90;;;;;;4977763;28;20375;-75
2022/10/09 03:37:18;;;;;;;;;;;10.60;99.90;;;;;;4977995;28;20300;-75
2022/10/09 03:39:45;;;;;;;;;;;10.60;99.90;;;;;;4985256;28;19929;-75
2022/10/09 03:42:12;;;;;;;;;;;10.60;99.90;;;;;;4976708;28;19941;-75
2022/10/09 03:44:39;;;;;;;;;;;10.60;99.90;;;;;;4976591;28;20448;-75
2022/10/09 03:47:07;;;;;;;;;;;10.60;99.90;;;;;;4977719;28;19973;-75
2022/10/09 03:49:34;;;;;;;;;;;10.50;99.90;;;;;;4979601;28;19934;-75
2022/10/09 03:52:01;;;;;;;;;;;10.50;99.90;;;;;;4982409;28;19926;-75
2022/10/09 03:54:28;;;;;;;;;;;10.50;99.90;;;;;;4984330;28;20399;-75
2022/10/09 03:56:54;;;;;;;;;;;10.50;99.90;;;;;;4981801;28;20180;-75
2022/10/09 03:59:21;;;;;;;;;;;10.50;99.90;;;;;;4981024;28;20009;-75
2022/10/09 04:01:48;;;;;;;;;;;10.50;99.90;;;;;;4975235;28;19926;-76
2022/10/09 04:04:16;;;;;;;;;;;10.50;99.90;;;;;;4979651;28;19932;-75
2022/10/09 04:06:43;;;;;;;;;;;10.50;99.90;;;;;;4982810;28;19988;-75
2022/10/09 04:09:10;;;;;;;;;;;10.50;99.90;;;;;;4989216;28;20025;-75
2022/10/09 04:11:37;;;;;;;;;;;10.50;99.90;;;;;;4988127;28;19980;-75
2022/10/09 04:14:04;;;;;;;;;;;10.40;99.90;;;;;;4989099;28;19926;-75
2022/10/09 04:16:30;;;;;;;;;;;10.40;99.90;;;;;;4987901;28;20012;-76
2022/10/09 04:18:57;;;;;;;;;;;10.40;99.90;;;;;;4986532;28;19976;-75
2022/10/09 04:21:25;;;;;;;;;;;10.40;99.90;;;;;;4980293;28;19934;-76
2022/10/09 04:23:52;;;;;;;;;;;10.40;99.90;;;;;;4986031;28;19977;-75
2022/10/09 04:26:19;;;;;;;;;;;10.40;99.90;;;;;;4978464;28;19977;-76
2022/10/09 04:28:46;;;;;;;;;;;10.40;99.90;;;;;;4989862;28;19925;-75
2022/10/09 04:31:12;;;;;;;;;;;10.40;99.90;;;;;;4984673;28;19933;-75
2022/10/09 04:33:39;;;;;;;;;;;10.40;99.90;;;;;;4991922;28;20013;-76
2022/10/09 04:36:06;;;;;;;;;;;10.40;99.90;;;;;;4994891;28;19957;-76
2022/10/09 04:38:35;;;;;;;;;;;10.30;99.90;;;;;;4980881;28;19953;-75
2022/10/09 04:41:02;;;;;;;;;;;10.30;99.90;;;;;;4990217;28;19930;-75
2022/10/09 04:43:29;;;;;;;;;;;10.30;99.90;;;;;;4986374;28;20169;-76
2022/10/09 04:45:56;;;;;;;;;;;10.30;99.90;;;;;;4990083;28;20273;-75
2022/10/09 04:48:23;;;;;;;;;;;10.30;99.90;;;;;;4990600;28;19933;-75
2022/10/09 04:50:50;;;;;;;;;;;10.30;99.90;;;;;;4984798;28;19929;-75
2022/10/09 04:53:17;;;;;;;;;;;10.30;99.90;;;;;;4986487;28;20337;-75
2022/10/09 04:55:45;;;;;;;;;;;10.30;99.90;;;;;;4984910;28;20029;-75
2022/10/09 04:58:12;;;;;;;;;;;10.30;99.90;;;;;;4985231;28;19992;-75
2022/10/09 05:00:40;;;;;;;;;;;10.20;99.90;;;;;;4984911;28;20505;-76
2022/10/09 05:03:07;;;;;;;;;;;10.20;99.90;;;;;;4979637;28;19927;-76
2022/10/09 05:05:33;;;;;;;;;;;10.20;99.90;;;;;;4980021;28;20384;-75
2022/10/09 05:08:00;;;;;;;;;;;10.20;99.90;;;;;;4983584;28;19925;-75
2022/10/09 05:10:27;;;;;;;;;;;10.20;99.90;;;;;;4990525;28;19984;-75
2022/10/09 05:12:55;;;;;;;;;;;10.20;99.90;;;;;;4982364;28;19926;-75
2022/10/09 05:15:22;;;;;;;;;;;10.20;99.90;;;;;;4986205;28;20304;-76
2022/10/09 05:17:49;;;;;;;;;;;10.20;99.90;;;;;;4978504;28;20331;-75
2022/10/09 05:20:16;;;;;;;;;;;10.20;99.90;;;;;;4985805;28;19933;-75
2022/10/09 05:22:43;;;;;;;;;;;10.20;99.90;;;;;;4982206;28;19932;-75
2022/10/09 05:25:10;;;;;;;;;;;10.10;99.90;;;;;;4992196;28;19925;-76
2022/10/09 05:27:37;;;;;;;;;;;10.10;99.90;;;;;;4984284;28;19925;-75
2022/10/09 05:30:06;;;;;;;;;;;10.10;99.90;;;;;;4987724;28;19973;-76
2022/10/09 05:32:33;;;;;;;;;;;10.10;99.90;;;;;;4980547;28;19926;-75
2022/10/09 05:35:00;;;;;;;;;;;10.10;99.90;;;;;;4982328;28;20346;-75
2022/10/09 05:37:26;;;;;;;;;;;10.10;99.90;;;;;;4979554;28;19927;-75
2022/10/09 05:39:53;;;;;;;;;;;10.10;99.90;;;;;;4982724;28;20454;-75
2022/10/09 05:42:20;;;;;;;;;;;10.00;99.90;;;;;;4983154;28;20274;-75
2022/10/09 05:44:47;;;;;;;;;;;10.00;99.90;;;;;;4979283;28;19972;-75
2022/10/09 05:47:16;;;;;;;;;;;10.00;99.90;;;;;;4973996;28;19977;-76
2022/10/09 05:49:43;;;;;;;;;;;10.00;99.90;;;;;;4985744;28;19940;-75
2022/10/09 05:52:10;;;;;;;;;;;10.00;99.90;;;;;;4985261;28;19961;-75
2022/10/09 05:54:37;;;;;;;;;;;9.90;99.90;;;;;;4975341;28;20035;-75
2022/10/09 05:57:03;;;;;;;;;;;10.00;99.90;;;;;;4983844;28;20347;-75
2022/10/09 05:59:30;;;;;;;;;;;9.90;99.90;;;;;;4973502;28;19933;-75
2022/10/09 06:01:57;;;;;;;;;;;9.90;99.90;;;;;;4975410;28;19930;-75
2022/10/09 06:04:26;;;;;;;;;;;9.90;99.90;;;;;;4984552;28;19926;-75
2022/10/09 06:06:52;;;;;;;;;;;9.90;99.90;;;;;;4990962;28;19993;-75
2022/10/09 06:09:24;;;;;;;;;;;9.90;99.90;;;;;;4980250;28;19932;-75
2022/10/09 06:11:51;;;;;;;;;;;9.90;99.90;;;;;;4985674;28;19961;-75
2022/10/09 06:14:20;;;;;;;;;;;9.90;99.90;;;;;;4984342;28;20174;-76
2022/10/09 06:16:47;;;;;;;;;;;9.90;99.90;;;;;;4979875;28;19930;-75
2022/10/09 06:19:14;;;;;;;;;;;9.90;99.90;;;;;;4987851;28;19934;-76
2022/10/09 06:21:43;;;;;;;;;;;9.90;99.90;;;;;;4974767;28;19977;-76
2022/10/09 06:24:11;;;;;;;;;;;9.90;99.90;;;;;;4982926;28;19933;-75
2022/10/09 06:26:38;;;;;;;;;;;9.80;99.90;;;;;;4983225;28;20424;-75
2022/10/09 06:29:05;;;;;;;;;;;9.80;99.90;;;;;;4983767;28;20004;-75
2022/10/09 06:31:32;;;;;;;;;;;9.80;99.90;;;;;;4987512;28;19930;-75
2022/10/09 06:34:00;;;;;;;;;;;9.80;99.90;;;;;;4985768;28;19933;-75
2022/10/09 06:36:28;;;;;;;;;;;9.80;99.90;;;;;;4984909;28;19925;-76
2022/10/09 06:38:56;;;;;;;;;;;9.80;99.90;;;;;;4983136;28;20189;-76
2022/10/09 06:41:24;;;;;;;;;;;9.80;99.90;;;;;;4980776;28;20365;-76
2022/10/09 06:43:52;;;;;;;;;;;9.80;99.90;;;;;;4987743;28;19984;-75
2022/10/09 06:46:19;;;;;;;;;;;9.80;99.90;;;;;;4983510;28;20394;-75
2022/10/09 06:48:46;;;;;;;;;;;9.80;99.90;;;;;;4964747;28;20023;-76
2022/10/09 06:51:14;;;;;;;;;;;9.80;99.90;;;;;;4993662;28;20348;-76
2022/10/09 06:53:41;;;;;;;;;;;9.70;99.90;;;;;;4977689;28;19984;-76
2022/10/09 06:56:10;;;;;;;;;;;9.70;99.90;;;;;;4983275;28;19933;-76
2022/10/09 06:58:37;;;;;;;;;;;9.80;99.90;;;;;;4981421;28;19940;-76
2022/10/09 07:01:05;;;;;;;;;;;9.80;99.90;;;;;;4979451;28;19933;-76
2022/10/09 07:03:32;;;;;;;;;;;9.70;99.90;;;;;;4978033;28;19980;-76
2022/10/09 07:06:06;;;;;;;;;;;9.70;99.90;;;;;;4979745;28;19972;-80
2022/10/09 07:08:33;;;;;;;;;;;9.80;99.90;;;;;;4984137;28;19969;-76
2022/10/09 07:10:59;;;;;;;;;;;9.80;99.90;;;;;;4987582;28;20288;-78
2022/10/09 07:16:18;;;;;;;;;;;9.90;99.90;;;;;;5767786;23;19925;-75
2022/10/09 07:18:44;;;;;;;;;;;9.90;99.90;;;;;;4974874;28;20384;-75
2022/10/09 07:21:11;;;;;;;;;;;9.90;99.90;;;;;;4981696;28;19985;-75
2022/10/09 07:23:38;;;;;;;;;;;10.00;99.90;;;;;;4974488;28;19934;-75
2022/10/09 07:26:09;;;;;;;;;;;9.90;99.90;;;;;;4976246;28;20384;-75
2022/10/09 07:28:36;;;;;;;;;;;9.80;99.90;;;;;;4979624;28;19955;-75
2022/10/09 07:31:03;;;;;;;;;;;9.90;99.90;;;;;;4976351;28;19940;-75
2022/10/09 07:33:32;;;;;;;;;;;9.90;99.90;;;;;;4974539;28;20005;-75
2022/10/09 07:35:59;;;;;;;;;;;9.90;99.90;;;;;;4971533;28;20032;-75
2022/10/09 07:38:27;;;;;;;;;;;9.90;99.90;;;;;;4978148;28;20032;-75
2022/10/09 07:40:54;;;;;;;;;;;9.90;99.90;;;;;;4983334;28;19993;-75
2022/10/09 07:43:22;;;;;;;;;;;9.90;99.90;;;;;;4987471;28;19934;-78
2022/10/09 07:45:49;;;;;;;;;;;9.90;99.90;;;;;;4978218;28;19981;-75
2022/10/09 07:48:16;;;;;;;;;;;9.90;99.90;;;;;;4979701;28;19941;-76
2022/10/09 07:50:44;;;;;;;;;;;9.90;99.90;;;;;;4979146;28;19977;-75
2022/10/09 07:53:11;;;;;;;;;;;9.90;99.90;;;;;;4974592;28;19940;-75
2022/10/09 07:55:44;;;;;;;;;;;9.70;99.90;;;;;;4979527;28;20384;-75
2022/10/09 07:58:10;;;;;;;;;;;9.60;99.90;;;;;;4982636;28;19961;-75
2022/10/09 08:00:37;;;;;;;;;;;9.50;99.90;;;;;;4983678;28;20633;-76
2022/10/09 08:03:04;;;;;;;;;;;9.60;99.90;;;;;;4972727;28;19934;-76
2022/10/09 08:05:31;;;;;;;;;;;9.60;99.90;;;;;;4974136;28;19933;-75
2022/10/09 08:07:59;;;;;;;;;;;9.60;99.90;;;;;;4978029;28;19926;-75
2022/10/09 08:10:28;;;;;;;;;;;9.70;99.90;;;;;;4984720;28;19930;-75
2022/10/09 08:12:55;;;;;;;;;;;9.70;99.90;;;;;;4967749;28;19926;-75
2022/10/09 08:15:22;;;;;;;;;;;9.70;99.90;;;;;;4981633;28;20240;-75
2022/10/09 08:17:49;;;;;;;;;;;9.70;99.90;;;;;;4979342;28;20025;-75
2022/10/09 08:20:15;;;;;;;;;;;9.70;99.90;;;;;;4974633;28;19996;-75
2022/10/09 08:22:42;;;;;;;;;;;9.70;99.90;;;;;;4978350;28;20307;-76
2022/10/09 08:25:10;;;;;;;;;;;9.70;99.90;;;;;;4983637;28;20018;-75
2022/10/09 08:27:37;;;;;;;;;;;9.60;99.90;;;;;;4991988;28;20020;-75
2022/10/09 08:30:04;;;;;;;;;;;9.70;99.90;;;;;;4977622;28;19965;-75
2022/10/09 08:32:32;;;;;;;;;;;9.70;99.90;;;;;;4978258;28;19932;-75
2022/10/09 08:34:58;;;;;;;;;;;9.70;99.90;;;;;;4977027;28;20024;-75
2022/10/09 08:37:25;;;;;;;;;;;9.70;99.90;;;;;;4976341;28;19934;-75
2022/10/09 08:39:52;;;;;;;;;;;9.70;99.90;;;;;;4975971;28;20002;-75
2022/10/09 08:42:27;;;;;;;;;;;9.70;99.90;;;;;;4977171;28;19926;-75
2022/10/09 08:44:54;;;;;;;;;;;9.70;99.90;;;;;;4977939;28;19941;-75
2022/10/09 08:47:22;;;;;;;;;;;9.70;99.90;;;;;;4970716;28;19926;-75
2022/10/09 08:49:51;;;;;;;;;;;9.70;99.90;;;;;;4978892;28;19926;-75
2022/10/09 08:52:24;;;;;;;;;;;9.70;99.90;;;;;;4979210;28;20068;-75
2022/10/09 08:54:52;;;;;;;;;;;9.80;99.90;;;;;;4976825;28;20029;-75
2022/10/09 08:57:20;;;;;;;;;;;9.80;99.90;;;;;;4973441;28;20527;-76
2022/10/09 08:59:49;;;;;;;;;;;9.80;99.90;;;;;;4976389;28;21161;-76
2022/10/09 09:02:25;;;;;;;;;;;9.80;99.90;;;;;;4976989;28;19981;-74
2022/10/09 09:04:59;;;;;;;;;;;9.80;99.90;;;;;;4977407;28;19995;-76
2022/10/09 09:07:30;;;;;;;;;;;9.80;99.90;;;;;;4981911;28;19968;-77
2022/10/09 09:09:59;;;;;;;;;;;9.80;99.90;;;;;;4974163;28;19926;-74
2022/10/09 09:12:33;;;;;;;;;;;9.80;99.90;;;;;;4978584;28;20024;-80
2022/10/09 09:15:18;;;;;;;;;;;9.80;99.90;;;;;;4977677;28;20117;-78
2022/10/09 09:17:48;;;;;;;;;;;9.80;99.90;;;;;;4980035;28;19980;-75
2022/10/09 09:20:25;;;;;;;;;;;9.80;99.90;;;;;;4979825;28;19973;-75
2022/10/09 09:25:34;;;;;;;;;;;9.80;99.90;;;;;;4983925;28;19932;-77
2022/10/09 09:28:06;;;;;;;;;;;9.80;99.90;;;;;;4977860;28;19936;-76
2022/10/09 09:30:37;;;;;;;;;;;9.80;99.90;;;;;;4980339;28;20013;-75
2022/10/09 09:33:08;;;;;;;;;;;9.80;99.90;;;;;;4974713;28;19972;-74
2022/10/09 09:35:47;;;;;;;;;;;9.80;99.90;;;;;;4982324;28;20672;-80
2022/10/09 09:38:14;;;;;;;;;;;9.90;99.90;;;;;;4980111;28;19930;-74
2022/10/09 09:40:41;;;;;;;;;;;9.90;99.90;;;;;;4975568;28;19979;-74
2022/10/09 09:43:13;;;;;;;;;;;9.80;99.90;;;;;;4971834;28;19930;-73
2022/10/09 09:45:42;;;;;;;;;;;9.90;99.90;;;;;;4976269;28;19909;-73
2022/10/09 09:48:12;;;;;;;;;;;9.90;99.90;;;;;;4985918;28;20690;-73
2022/10/09 09:50:42;;;;;;;;;;;9.90;99.90;;;;;;4970299;28;20422;-73
2022/10/09 09:53:14;;;;;;;;;;;9.90;99.90;;;;;;4984303;28;19961;-73
2022/10/09 09:55:40;;;;;;;;;;;10.00;99.90;;;;;;4961810;28;19977;-73
2022/10/09 09:58:12;;;;;;;;;;;10.00;99.90;;;;;;4978352;28;19926;-74
2022/10/09 10:00:39;;;;;;;;;;;10.00;99.90;;;;;;4979851;28;19926;-74
2022/10/09 10:03:14;;;;;;;;;;;10.00;99.90;;;;;;4978508;28;20463;-73
2022/10/09 10:05:41;;;;;;;;;;;10.00;99.90;;;;;;4983289;28;19984;-73
2022/10/09 10:08:15;;;;;;;;;;;10.10;99.90;;;;;;4979917;28;19981;-73
2022/10/09 10:10:44;;;;;;;;;;;10.20;99.90;;;;;;4985143;28;19965;-73
2022/10/09 10:13:14;;;;;;;;;;;10.20;99.90;;;;;;4983754;28;19959;-73
2022/10/09 10:15:47;;;;;;;;;;;10.10;99.90;;;;;;4978448;28;20355;-73
2022/10/09 10:18:16;;;;;;;;;;;10.20;99.90;;;;;;4981282;28;19925;-74
2022/10/09 10:20:44;;;;;;;;;;;10.20;99.90;;;;;;4980122;28;19934;-74
2022/10/09 10:23:22;;;;;;;;;;;10.20;99.90;;;;;;4982729;28;19938;-74
2022/10/09 10:25:50;;;;;;;;;;;10.20;99.90;;;;;;4981834;28;19941;-73
2022/10/09 10:28:20;;;;;;;;;;;10.30;99.90;;;;;;4985006;28;19930;-73
2022/10/09 10:30:47;;;;;;;;;;;10.30;99.90;;;;;;4979870;28;19961;-73
2022/10/09 10:33:19;;;;;;;;;;;10.30;99.90;;;;;;4984467;28;19951;-73
2022/10/09 10:35:49;;;;;;;;;;;10.30;99.90;;;;;;4979251;28;19941;-74
2022/10/09 10:38:19;;;;;;;;;;;10.40;99.90;;;;;;4974665;28;19926;-73
2022/10/09 10:40:49;;;;;;;;;;;10.40;99.90;;;;;;4981741;28;20364;-74
2022/10/09 10:43:24;;;;;;;;;;;10.40;99.90;;;;;;4988286;28;20024;-73
2022/10/09 10:45:58;;;;;;;;;;;10.40;99.90;;;;;;4980998;28;20808;-74
2022/10/09 10:48:28;;;;;;;;;;;10.50;99.90;;;;;;4976022;28;19970;-74
2022/10/09 10:51:00;;;;;;;;;;;10.50;99.90;;;;;;4983728;28;19930;-74
2022/10/09 10:53:36;;;;;;;;;;;10.50;99.90;;;;;;4979985;28;20487;-73
2022/10/09 10:56:05;;;;;;;;;;;10.60;99.90;;;;;;4974986;28;20613;-74
2022/10/09 10:58:38;;;;;;;;;;;10.60;99.90;;;;;;4984109;28;19930;-74
2022/10/09 11:01:13;;;;;;;;;;;10.60;99.90;;;;;;4977515;28;19933;-73
2022/10/09 11:03:47;;;;;;;;;;;10.60;99.90;;;;;;4975723;28;19984;-74
2022/10/09 11:06:16;;;;;;;;;;;10.60;99.90;;;;;;4990874;23;19933;-72
2022/10/09 11:08:51;;;;;;;;;;;10.70;99.90;;;;;;4978481;28;19965;-73
2022/10/09 11:11:22;;;;;;;;;;;10.70;99.90;;;;;;4965363;28;19938;-73
2022/10/09 11:13:53;;;;;;;;;;;10.80;99.90;;;;;;4958115;28;19989;-73
2022/10/09 11:16:31;;;;;;;;;;;10.80;99.90;;;;;;4958791;28;20013;-71
2022/10/09 11:19:10;;;;;;;;;;;10.80;99.90;;;;;;4965102;28;20005;-71
2022/10/09 11:21:48;;;;;;;;;;;10.80;99.90;;;;;;4960610;28;19938;-71
2022/10/09 11:24:25;;;;;;;;;;;10.80;99.90;;;;;;4962975;28;19973;-71
2022/10/09 11:26:56;;;;;;;;;;;10.90;99.90;;;;;;4963150;28;20036;-71
2022/10/09 11:29:25;;;;;;;;;;;11.00;99.90;;;;;;4959986;28;19957;-71
2022/10/09 11:31:53;;;;;;;;;;;11.00;99.90;;;;;;4961964;28;19930;-71
2022/10/09 11:34:26;;;;;;;;;;;11.00;99.90;;;;;;4964314;28;19962;-71
2022/10/09 11:36:54;;;;;;;;;;;11.00;99.90;;;;;;4966532;28;20348;-72
2022/10/09 11:39:22;;;;;;;;;;;11.20;99.90;;;;;;4964260;28;19973;-71
2022/10/09 11:41:51;;;;;;;;;;;11.20;99.90;;;;;;4954748;28;19985;-72
2022/10/09 11:44:42;;;;;;;;;;;11.20;99.90;;;;;;4965485;28;19962;-74
2022/10/09 11:47:13;;;;;;;;;;;11.30;99.90;;;;;;4958284;28;19981;-71
2022/10/09 11:49:52;;;;;;;;;;;11.20;99.90;;;;;;4959829;28;21262;-72
2022/10/09 11:52:26;;;;;;;;;;;11.20;99.90;;;;;;4964279;28;20024;-72
2022/10/09 11:54:53;;;;;;;;;;;11.30;99.90;;;;;;4958784;28;20041;-72
2022/10/09 11:57:27;;;;;;;;;;;11.30;99.90;;;;;;4961317;28;19941;-72
2022/10/09 12:00:04;;;;;;;;;;;11.30;99.90;;;;;;4958208;28;19926;-73
2022/10/09 12:02:31;;;;;;;;;;;11.30;99.90;;;;;;4963713;28;19926;-72
2022/10/09 12:04:59;;;;;;;;;;;11.40;99.90;;;;;;4961091;28;19961;-72
2022/10/09 12:07:30;;;;;;;;;;;11.40;99.90;;;;;;4958202;28;19953;-73
2022/10/09 12:09:58;;;;;;;;;;;11.40;99.90;;;;;;4965043;28;19984;-72
2022/10/09 12:12:25;;;;;;;;;;;11.40;99.90;;;;;;4964026;28;19926;-73
2022/10/09 12:14:52;;;;;;;;;;;11.50;99.90;;;;;;4962946;28;19972;-72
2022/10/09 12:17:33;;;;;;;;;;;11.50;99.90;;;;;;4960815;28;19966;-72
2022/10/09 12:20:04;;;;;;;;;;;11.60;99.90;;;;;;4950543;28;20705;-73
2022/10/09 12:22:34;;;;;;;;;;;11.60;99.90;;;;;;4950859;28;19959;-72
2022/10/09 12:25:04;;;;;;;;;;;11.70;99.90;;;;;;4957073;28;21067;-72
2022/10/09 12:27:33;;;;;;;;;;;11.70;99.90;;;;;;4959398;28;20046;-74
2022/10/09 12:30:05;;;;;;;;;;;11.80;99.90;;;;;;4970836;28;19936;-74
2022/10/09 12:32:35;;;;;;;;;;;11.90;99.90;;;;;;4961781;28;20025;-74
2022/10/09 12:35:10;;;;;;;;;;;11.90;99.90;;;;;;4964946;28;19934;-76
2022/10/09 12:37:37;;;;;;;;;;;11.90;99.90;;;;;;4959963;28;20028;-76
2022/10/09 12:40:08;;;;;;;;;;;12.00;99.90;;;;;;4964790;28;19973;-88
2022/10/09 12:42:38;;;;;;;;;;;12.10;99.90;;;;;;4962097;28;20393;-75
2022/10/09 12:45:06;;;;;;;;;;;12.30;99.90;;;;;;4958353;28;19977;-83
2022/10/09 12:47:34;;;;;;;;;;;12.40;99.90;;;;;;4965590;28;20017;-77
2022/10/09 12:50:03;;;;;;;;;;;12.50;99.90;;;;;;4969143;28;19956;-75
2022/10/09 12:52:32;;;;;;;;;;;12.50;99.90;;;;;;4959531;28;19934;-74
2022/10/09 12:55:00;;;;;;;;;;;12.50;99.90;;;;;;4965414;28;20017;-74
2022/10/09 12:57:27;;;;;;;;;;;12.60;99.90;;;;;;4961040;28;19930;-72
2022/10/09 12:59:55;;;;;;;;;;;12.70;99.90;;;;;;4961171;28;20025;-72
2022/10/09 13:02:21;;;;;;;;;;;12.80;99.90;;;;;;4956430;28;20013;-77
2022/10/09 13:04:57;;;;;;;;;;;12.80;99.90;;;;;;4958723;28;19930;-73
2022/10/09 13:07:25;;;;;;;;;;;12.80;99.90;;;;;;4961127;28;19926;-82
2022/10/09 13:09:58;;;;;;;;;;;12.80;99.90;;;;;;4961194;28;19932;-74
2022/10/09 13:12:25;;;;;;;;;;;12.80;99.90;;;;;;4960423;28;19968;-82
2022/10/09 13:14:54;;;;;;;;;;;12.80;99.90;;;;;;4974652;28;19945;-72
2022/10/09 13:17:22;;;;;;;;;;;12.90;99.90;;;;;;4955563;28;19927;-73
2022/10/09 13:19:50;;;;;;;;;;;12.90;99.90;;;;;;4957751;28;19930;-72
2022/10/09 13:22:19;;;;;;;;;;;13.00;99.90;;;;;;4954907;28;19930;-75
2022/10/09 13:24:46;;;;;;;;;;;13.00;99.90;;;;;;4965794;28;20040;-81
2022/10/09 13:27:14;;;;;;;;;;;13.10;99.90;;;;;;4978670;28;20016;-71
2022/10/09 13:29:42;;;;;;;;;;;13.20;99.90;;;;;;4954248;28;19981;-75
2022/10/09 13:32:11;;;;;;;;;;;13.10;99.90;;;;;;4960018;28;19952;-73
2022/10/09 13:34:38;;;;;;;;;;;13.20;99.90;;;;;;4958094;28;19950;-75
2022/10/09 13:37:05;;;;;;;;;;;13.20;99.90;;;;;;4955458;28;19930;-73
2022/10/09 13:39:31;;;;;;;;;;;13.20;99.90;;;;;;4957259;28;19927;-73
2022/10/09 13:41:59;;;;;;;;;;;13.20;99.90;;;;;;4961380;28;20420;-75
2022/10/09 13:44:27;;;;;;;;;;;13.30;99.90;;;;;;4952560;28;19934;-73
2022/10/09 13:46:54;;;;;;;;;;;13.30;99.90;;;;;;4955073;28;19985;-73
2022/10/09 13:49:20;;;;;;;;;;;13.30;99.90;;;;;;4956530;28;20013;-73
2022/10/09 13:51:47;;;;;;;;;;;13.30;99.90;;;;;;4956588;28;20507;-73
2022/10/09 13:54:14;;;;;;;;;;;13.30;99.90;;;;;;4956451;28;20023;-73
2022/10/09 13:56:41;;;;;;;;;;;13.30;99.90;;;;;;4959633;28;19933;-73
2022/10/09 13:59:08;;;;;;;;;;;13.40;99.90;;;;;;4958594;28;19965;-73
2022/10/09 14:01:36;;;;;;;;;;;13.50;99.90;;;;;;4948019;28;20363;-75
2022/10/09 14:04:03;;;;;;;;;;;13.50;99.90;;;;;;4969921;28;21502;-75
2022/10/09 14:06:30;;;;;;;;;;;13.40;99.90;;;;;;4953386;28;19958;-75
2022/10/09 14:08:56;;;;;;;;;;;13.50;99.90;;;;;;4955328;28;20008;-75
2022/10/09 14:11:23;;;;;;;;;;;13.50;99.90;;;;;;4952213;28;19926;-76
2022/10/09 14:13:50;;;;;;;;;;;13.50;99.90;;;;;;4952086;28;20069;-75
2022/10/09 14:16:17;;;;;;;;;;;13.40;99.90;;;;;;4969184;28;19932;-75
2022/10/09 14:18:45;;;;;;;;;;;13.50;99.90;;;;;;4942108;28;19940;-75
2022/10/09 14:21:13;;;;;;;;;;;13.40;99.90;;;;;;4956377;28;19945;-76
2022/10/09 14:23:41;;;;;;;;;;;13.40;99.90;;;;;;4950126;28;19932;-85
2022/10/09 14:26:08;;;;;;;;;;;13.40;99.90;;;;;;4958992;28;19961;-74
2022/10/09 14:28:37;;;;;;;;;;;13.40;99.90;;;;;;4955031;28;19926;-75
2022/10/09 14:31:05;;;;;;;;;;;13.40;99.90;;;;;;4952333;28;19934;-75
2022/10/09 14:33:32;;;;;;;;;;;13.40;99.90;;;;;;4969891;28;20450;-74
2022/10/09 14:36:05;;;;;;;;;;;13.40;99.90;;;;;;4958397;28;19985;-82